createdAt,value
2022-11-26T00:01:00.831Z,99172.58
2022-11-26T00:06:03.228Z,99173.93
2022-11-26T00:11:08.129Z,99178.27
2022-11-26T00:16:14.601Z,99185.39
2022-11-26T00:21:25.907Z,99187.83
2022-11-26T00:26:27.723Z,99193.59
2022-11-26T00:31:29.761Z,99196.35
2022-11-26T00:36:33.151Z,99199.13
2022-11-26T00:41:40.881Z,99199.30
2022-11-26T00:46:42.731Z,99198.52
2022-11-26T00:51:46.797Z,99204.13
2022-11-26T00:56:50.655Z,99206.86
2022-11-26T01:01:52.507Z,99207.85
2022-11-26T01:06:54.634Z,99211.88
2022-11-26T01:11:56.456Z,99215.30
2022-11-26T01:16:59.022Z,99219.38
2022-11-26T01:22:01.162Z,99223.30
2022-11-26T01:27:03.032Z,99228.20
2022-11-26T01:32:05.140Z,99223.48
2022-11-26T01:37:13.492Z,99226.77
2022-11-26T01:42:26.019Z,99232.55
2022-11-26T01:47:30.511Z,99237.83
2022-11-26T01:52:32.579Z,99243.38
2022-11-26T01:57:38.750Z,99241.79
2022-11-26T02:02:41.848Z,99245.24
2022-11-26T02:07:44.621Z,99252.16
2022-11-26T02:12:47.265Z,99251.83
2022-11-26T02:17:55.936Z,99248.34
2022-11-26T02:23:12.226Z,99248.09
2022-11-26T02:28:28.350Z,99249.83
2022-11-26T02:33:40.605Z,99245.40
2022-11-26T02:38:42.513Z,99245.88
2022-11-26T02:43:44.544Z,99252.64
2022-11-26T02:48:50.303Z,99255.66
2022-11-26T02:53:53.333Z,99256.84
2022-11-26T02:58:56.743Z,99256.23
2022-11-26T03:04:03.751Z,99259.31
2022-11-26T03:09:06.071Z,99260.10
2022-11-26T03:14:08.226Z,99260.31
2022-11-26T03:19:10.149Z,99263.10
2022-11-26T03:24:11.981Z,99262.47
2022-11-26T03:29:13.836Z,99270.07
2022-11-26T03:34:15.782Z,99272.83
2022-11-26T03:39:17.776Z,99266.21
2022-11-26T03:44:19.677Z,99265.98
2022-11-26T03:49:21.584Z,99271.70
2022-11-26T03:54:23.418Z,99268.38
2022-11-26T03:59:25.266Z,99268.90
2022-11-26T04:04:27.124Z,99270.03
2022-11-26T04:09:28.964Z,99273.14
2022-11-26T04:14:30.874Z,99275.70
2022-11-26T04:19:32.715Z,99284.10
2022-11-26T04:24:34.926Z,99289.36
2022-11-26T04:29:37.708Z,99292.14
2022-11-26T04:34:39.836Z,99301.42
2022-11-26T04:39:42.382Z,99306.27
2022-11-26T04:44:44.235Z,99311.36
2022-11-26T04:49:46.090Z,99317.58
2022-11-26T04:54:47.941Z,99323.92
2022-11-26T04:59:49.776Z,99328.90
2022-11-26T05:04:52.096Z,99331.26
2022-11-26T05:09:53.895Z,99328.14
2022-11-26T05:14:55.791Z,99327.80
2022-11-26T05:19:57.631Z,99331.41
2022-11-26T05:24:59.441Z,99338.86
2022-11-26T05:30:01.278Z,99341.42
2022-11-26T05:35:03.892Z,99346.11
2022-11-26T05:40:06.576Z,99345.85
2022-11-26T05:45:08.785Z,99351.98
2022-11-26T05:50:11.154Z,99361.65
2022-11-26T05:55:13.185Z,99369.63
2022-11-26T06:00:15.506Z,99372.88
2022-11-26T06:05:17.503Z,99378.18
2022-11-26T06:10:19.500Z,99380.98
2022-11-26T06:15:21.333Z,99390.23
2022-11-26T06:20:23.150Z,99392.14
2022-11-26T06:25:25.008Z,99395.30
2022-11-26T06:30:26.838Z,99406.89
2022-11-26T06:35:28.826Z,99408.81
2022-11-26T06:40:31.226Z,99414.33
2022-11-26T06:45:34.808Z,99417.05
2022-11-26T06:50:36.723Z,99423.95
2022-11-26T06:55:38.635Z,99429.01
2022-11-26T07:00:41.961Z,99433.75
2022-11-26T07:05:43.776Z,99437.70
2022-11-26T07:10:49.047Z,99442.70
2022-11-26T07:15:52.288Z,99444.35
2022-11-26T07:20:54.088Z,99446.73
2022-11-26T07:25:59.624Z,99447.61
2022-11-26T07:31:03.303Z,99446.30
2022-11-26T07:36:14.104Z,99452.20
2022-11-26T07:41:20.156Z,99456.36
2022-11-26T07:46:24.084Z,99457.34
2022-11-26T07:51:31.346Z,99465.52
2022-11-26T07:56:33.663Z,99471.94
2022-11-26T08:01:37.065Z,99478.06
2022-11-26T08:06:38.949Z,99483.50
2022-11-26T08:11:40.833Z,99489.73
2022-11-26T08:16:42.881Z,99493.29
2022-11-26T08:21:44.745Z,99496.56
2022-11-26T08:26:47.103Z,99499.09
2022-11-26T08:31:48.959Z,99500.06
2022-11-26T08:36:54.166Z,99502.21
2022-11-26T08:41:56.361Z,99505.20
2022-11-26T08:46:58.158Z,99508.73
2022-11-26T08:52:00.087Z,99509.55
2022-11-26T08:57:01.900Z,99515.98
2022-11-26T09:02:03.778Z,99516.52
2022-11-26T09:07:05.562Z,99522.84
2022-11-26T09:12:07.543Z,99524.85
2022-11-26T09:17:12.020Z,99529.25
2022-11-26T09:22:13.817Z,99532.69
2022-11-26T09:27:15.594Z,99533.42
2022-11-26T09:32:28.229Z,99540.05
2022-11-26T09:37:34.724Z,99537.60
2022-11-26T09:43:03.339Z,99536.71
2022-11-26T09:48:09.529Z,99540.75
2022-11-26T09:53:32.599Z,99541.81
2022-11-26T09:58:42.408Z,99544.61
2022-11-26T10:03:44.359Z,99551.53
2022-11-26T10:09:24.761Z,99547.48
2022-11-26T10:14:59.967Z,99546.35
2022-11-26T10:20:20.870Z,99552.23
2022-11-26T10:25:27.049Z,99554.30
2022-11-26T10:30:30.870Z,99557.67
2022-11-26T10:35:33.382Z,99554.23
2022-11-26T10:40:35.428Z,99551.06
2022-11-26T10:45:38.825Z,99551.08
2022-11-26T10:50:47.643Z,99548.98
2022-11-26T10:55:52.458Z,99553.23
2022-11-26T11:01:01.407Z,99556.73
2022-11-26T11:06:12.341Z,99555.89
2022-11-26T11:11:23.699Z,99554.66
2022-11-26T11:16:27.435Z,99553.39
2022-11-26T11:21:34.840Z,99552.84
2022-11-26T11:26:45.417Z,99555.35
2022-11-26T11:31:47.239Z,99557.89
2022-11-26T11:37:07.299Z,99557.91
2022-11-26T11:42:24.028Z,99559.11
2022-11-26T11:47:31.494Z,99556.15
2022-11-26T11:52:53.831Z,99562.10
2022-11-26T11:58:30.071Z,99567.48
2022-11-26T12:04:02.244Z,99574.91
2022-11-26T12:09:19.336Z,99569.39
2022-11-26T12:14:36.357Z,99575.80
2022-11-26T12:19:50.621Z,99578.99
2022-11-26T12:24:57.240Z,99578.39
2022-11-26T12:30:13.137Z,99581.39
2022-11-26T12:35:35.428Z,99576.48
2022-11-26T12:40:44.928Z,99579.09
2022-11-26T12:46:08.697Z,99583.41
2022-11-26T12:51:32.096Z,99582.30
2022-11-26T12:56:42.289Z,99586.95
2022-11-26T13:01:44.066Z,99586.60
2022-11-26T13:06:51.669Z,99588.00
2022-11-26T13:12:06.040Z,99584.63
2022-11-26T13:17:19.290Z,99586.23
2022-11-26T13:22:52.387Z,99595.19
2022-11-26T13:28:09.305Z,99596.69
2022-11-26T13:33:49.206Z,99601.45
2022-11-26T13:39:05.382Z,99604.79
2022-11-26T13:44:19.494Z,99606.77
2022-11-26T13:49:43.072Z,99608.41
2022-11-26T13:55:04.049Z,99605.69
2022-11-26T14:00:07.604Z,99612.42
2022-11-26T14:05:17.412Z,99608.48
2022-11-26T14:10:42.730Z,99619.52
2022-11-26T14:15:44.495Z,99617.58
2022-11-26T14:21:01.672Z,99622.58
2022-11-26T14:26:03.574Z,99622.55
2022-11-26T14:31:25.189Z,99622.89
2022-11-26T14:36:29.062Z,99626.34
2022-11-26T14:41:58.944Z,99633.39
2022-11-26T14:47:16.483Z,99633.20
2022-11-26T14:52:29.147Z,99639.44
2022-11-26T14:57:43.225Z,99642.30
2022-11-26T15:02:45.977Z,99653.94
2022-11-26T15:08:07.449Z,99659.30
2022-11-26T15:13:30.855Z,99661.52
2022-11-26T15:18:35.227Z,99665.09
2022-11-26T15:23:42.006Z,99667.30
2022-11-26T15:28:44.377Z,99665.75
2022-11-26T15:33:47.266Z,99670.16
2022-11-26T15:39:07.399Z,99671.50
2022-11-26T15:44:42.510Z,99676.20
2022-11-26T15:49:50.571Z,99684.92
2022-11-26T15:55:15.463Z,99692.55
2022-11-26T16:00:22.573Z,99696.04
2022-11-26T16:05:39.420Z,99699.14
2022-11-26T16:10:41.581Z,99701.46
2022-11-26T16:15:50.801Z,99708.34
2022-11-26T16:21:02.872Z,99700.89
2022-11-26T16:26:11.666Z,99698.54
2022-11-26T16:31:15.326Z,99704.66
2022-11-26T16:36:21.785Z,99717.46
2022-11-26T16:41:23.883Z,99725.25
2022-11-26T16:46:28.087Z,99735.63
2022-11-26T16:51:30.592Z,99751.21
2022-11-26T16:56:37.539Z,99753.30
2022-11-26T17:01:39.412Z,99761.40
2022-11-26T17:06:41.780Z,99771.94
2022-11-26T17:11:44.209Z,99771.10
2022-11-26T17:16:46.033Z,99777.40
2022-11-26T17:21:48.281Z,99778.82
2022-11-26T17:26:50.149Z,99786.92
2022-11-26T17:31:51.947Z,99789.66
2022-11-26T17:36:59.738Z,99792.38
2022-11-26T17:42:01.536Z,99796.90
2022-11-26T17:47:16.817Z,99797.55
2022-11-26T17:52:19.562Z,99804.94
2022-11-26T17:57:22.942Z,99810.40
2022-11-26T18:02:24.843Z,99817.29
2022-11-26T18:07:26.788Z,99826.76
2022-11-26T18:12:28.773Z,99829.25
2022-11-26T18:17:31.412Z,99830.58
2022-11-26T18:22:33.257Z,99831.43
2022-11-26T18:27:36.178Z,99827.81
2022-11-26T18:32:38.685Z,99832.38
2022-11-26T18:37:40.945Z,99831.29
2022-11-26T18:42:43.473Z,99836.09
2022-11-26T18:47:45.352Z,99838.46
2022-11-26T18:52:47.193Z,99841.23
2022-11-26T18:57:49.040Z,99847.59
2022-11-26T19:02:50.943Z,99850.43
2022-11-26T19:07:53.127Z,99855.39
2022-11-26T19:12:55.073Z,99858.84
2022-11-26T19:17:57.055Z,99854.30
2022-11-26T19:22:58.923Z,99855.54
2022-11-26T19:28:04.688Z,99862.77
2022-11-26T19:33:07.853Z,99860.98
2022-11-26T19:38:09.686Z,99862.90
2022-11-26T19:43:11.497Z,99868.16
2022-11-26T19:48:13.362Z,99875.58
2022-11-26T19:53:15.247Z,99879.81
2022-11-26T19:58:17.049Z,99882.13
2022-11-26T20:03:19.079Z,99886.88
2022-11-26T20:08:21.212Z,99894.34
2022-11-26T20:13:23.046Z,99893.68
2022-11-26T20:18:24.869Z,99902.88
2022-11-26T20:23:27.591Z,99905.49
2022-11-26T20:28:29.791Z,99906.27
2022-11-26T20:33:31.661Z,99904.75
2022-11-26T20:38:34.035Z,99905.55
2022-11-26T20:43:36.785Z,99908.34
2022-11-26T20:48:40.308Z,99908.91
2022-11-26T20:53:46.097Z,99908.45
2022-11-26T20:58:49.530Z,99912.16
2022-11-26T21:03:52.722Z,99916.65
2022-11-26T21:08:54.579Z,99916.77
2022-11-26T21:13:58.769Z,99916.61
2022-11-26T21:19:01.169Z,99917.42
2022-11-26T21:24:04.835Z,99918.45
2022-11-26T21:29:06.673Z,99920.02
2022-11-26T21:34:10.804Z,99923.20
2022-11-26T21:39:16.815Z,99926.25
2022-11-26T21:44:18.606Z,99920.52
2022-11-26T21:49:20.546Z,99916.98
2022-11-26T21:54:22.382Z,99921.03
2022-11-26T21:59:24.650Z,99923.15
2022-11-26T22:04:26.496Z,99926.95
2022-11-26T22:09:31.431Z,99928.84
2022-11-26T22:14:37.261Z,99928.61
2022-11-26T22:19:39.427Z,99931.17
2022-11-26T22:24:41.564Z,99932.95
2022-11-26T22:29:43.392Z,99937.65
2022-11-26T22:34:45.262Z,99936.93
2022-11-26T22:39:52.436Z,99940.85
2022-11-26T22:44:56.261Z,99942.44
2022-11-26T22:49:58.172Z,99941.87
2022-11-26T22:55:00.024Z,99946.08
2022-11-26T23:00:01.895Z,99939.08
2022-11-26T23:05:04.048Z,99932.76
2022-11-26T23:10:06.292Z,99933.93
2022-11-26T23:15:08.680Z,99939.77
2022-11-26T23:20:11.010Z,99941.02
2022-11-26T23:25:12.862Z,99945.53
2022-11-26T23:30:14.978Z,99940.00
2022-11-26T23:35:16.839Z,99941.94
2022-11-26T23:40:18.697Z,99941.27
2022-11-26T23:45:20.578Z,99938.02
2022-11-26T23:50:22.543Z,99929.12
2022-11-26T23:55:24.365Z,99929.21
